Time;durP1;ratioP1;P1;durP2;ratioP2;P2;SDS_P1;SDS_P2;PMS_P1;PMS_P2;Temp;Humidity;BMP_temperature;BMP_pressure;BME280_temperature;BME280_humidity;BME280_pressure;Samples;Min_cycle;Max_cycle;Signal;HPM_P1;HPM_P2
2022/08/12 00:43:24;;;;;;;2.28;1.30;;;;;;;;;;4936920;28;20317;-59
2022/08/12 00:48:33;;;;;;;7.60;1.55;;;;;;;;;;4939957;28;20165;-58
2022/08/12 00:51:00;;;;;;;3.05;1.50;;;;;;;;;;4942969;28;20482;-63
2022/08/12 00:53:28;;;;;;;3.78;1.70;;;;;;;;;;4942349;28;20062;-55
2022/08/12 00:55:57;;;;;;;1.70;1.60;;;;;;;;;;4942658;28;20565;-57
2022/08/12 00:58:24;;;;;;;2.85;1.65;;;;;;;;;;4941167;28;20042;-56
2022/08/12 01:00:50;;;;;;;1.88;1.60;;;;;;;;;;4940517;28;20059;-57
2022/08/12 01:03:19;;;;;;;2.92;1.40;;;;;;;;;;4937732;28;20072;-58
2022/08/12 01:11:33;;;;;;;5.18;1.80;;;;;;;;;;4942387;28;20042;-57
2022/08/12 01:14:00;;;;;;;3.90;1.85;;;;;;;;;;4936014;28;20051;-55
2022/08/12 01:16:26;;;;;;;2.53;1.73;;;;;;;;;;4940080;28;20417;-57
2022/08/12 01:18:54;;;;;;;1.63;1.52;;;;;;;;;;4943494;28;20055;-55
2022/08/12 01:21:55;;;;;;;4.18;1.70;;;;;;;;;;4940601;28;20146;-56
2022/08/12 01:24:39;;;;;;;6.13;1.77;;;;;;;;;;4940800;28;20052;-55
2022/08/12 01:27:07;;;;;;;5.30;1.75;;;;;;;;;;4941024;28;20127;-56
2022/08/12 01:29:40;;;;;;;4.15;1.52;;;;;;;;;;4942264;28;20119;-58
2022/08/12 01:32:07;;;;;;;;;;;;;;;;;;4939332;28;20050;-54
2022/08/12 01:34:38;;;;;;;5.47;1.77;;;;;;;;;;4939570;28;19926;-57
2022/08/12 01:37:06;;;;;;;1.98;1.70;;;;;;;;;;4942116;28;20433;-57
2022/08/12 01:39:37;;;;;;;3.90;1.80;;;;;;;;;;4942277;28;20146;-58
2022/08/12 01:42:08;;;;;;;4.35;2.20;;;;;;;;;;4938710;28;20103;-57
2022/08/12 01:44:35;;;;;;;3.63;2.00;;;;;;;;;;4941940;28;20031;-57
2022/08/12 01:47:17;;;;;;;3.55;1.83;;;;;;;;;;4943567;28;20039;-56
2022/08/12 01:49:43;;;;;;;5.88;1.77;;;;;;;;;;4940930;28;20071;-58
2022/08/12 01:52:34;;;;;;;3.80;1.52;;;;;;;;;;4939215;28;20063;-54
2022/08/12 01:55:00;;;;;;;4.80;1.52;;;;;;;;;;4916959;28;20441;-53
2022/08/12 01:57:38;;;;;;;4.07;1.58;;;;;;;;;;4939212;28;20043;-54
2022/08/12 02:00:12;;;;;;;2.92;1.50;;;;;;;;;;4940114;28;20066;-54
2022/08/12 02:02:59;;;;;;;6.47;1.50;;;;;;;;;;4940578;28;20082;-56
2022/08/12 02:11:33;;;;;;;2.08;1.50;;;;;;;;;;4938975;28;20106;-54
2022/08/12 02:14:32;;;;;;;6.85;1.70;;;;;;;;;;4939178;28;20046;-57
2022/08/12 02:17:25;;;;;;;2.72;1.45;;;;;;;;;;4939418;28;20508;-58
2022/08/12 02:19:54;;;;;;;;;;;;;;;;;;4957097;28;20058;-56
2022/08/12 02:22:27;;;;;;;3.05;1.60;;;;;;;;;;4940609;28;20016;-55
2022/08/12 02:25:03;;;;;;;3.45;1.45;;;;;;;;;;4939133;28;20138;-55
2022/08/12 02:27:36;;;;;;;4.30;1.65;;;;;;;;;;4938527;28;20077;-53
2022/08/12 02:30:02;;;;;;;1.92;1.67;;;;;;;;;;4940144;28;20644;-55
2022/08/12 02:32:28;;;;;;;3.00;1.70;;;;;;;;;;4943147;28;20129;-54
2022/08/12 02:34:55;;;;;;;3.63;1.65;;;;;;;;;;4940013;28;20039;-55
2022/08/12 02:37:23;;;;;;;3.40;1.85;;;;;;;;;;4936756;28;20047;-56
2022/08/12 02:39:52;;;;;;;3.00;1.67;;;;;;;;;;4940205;28;20043;-56
2022/08/12 02:42:21;;;;;;;2.95;1.52;;;;;;;;;;4939565;28;20058;-56
2022/08/12 02:44:51;;;;;;;2.75;1.42;;;;;;;;;;4939057;28;20082;-59
2022/08/12 02:47:20;;;;;;;5.38;1.67;;;;;;;;;;4940202;28;20046;-54
2022/08/12 02:49:54;;;;;;;2.80;1.60;;;;;;;;;;4939848;28;20066;-57
2022/08/12 02:52:21;;;;;;;4.45;1.50;;;;;;;;;;4936221;28;20434;-54
2022/08/12 02:54:52;;;;;;;4.72;1.45;;;;;;;;;;4940001;28;20162;-56
2022/08/12 02:57:21;;;;;;;2.13;1.40;;;;;;;;;;4937931;28;20051;-56
2022/08/12 02:59:48;;;;;;;3.08;1.40;;;;;;;;;;4938478;28;20109;-54
2022/08/12 03:02:18;;;;;;;3.83;1.50;;;;;;;;;;4938149;28;20035;-55
2022/08/12 03:04:55;;;;;;;2.78;1.50;;;;;;;;;;4939885;28;20521;-53
2022/08/12 03:07:30;;;;;;;5.13;1.70;;;;;;;;;;4936753;28;20773;-56
2022/08/12 03:10:09;;;;;;;3.90;1.60;;;;;;;;;;4941686;28;20496;-56
2022/08/12 03:12:38;;;;;;;9.27;1.80;;;;;;;;;;4938039;28;20044;-56
2022/08/12 03:15:10;;;;;;;4.07;1.90;;;;;;;;;;4936834;28;20113;-55
2022/08/12 03:18:01;;;;;;;1.77;1.67;;;;;;;;;;4940305;28;20035;-52
2022/08/12 03:20:26;;;;;;;4.30;1.40;;;;;;;;;;4936409;28;20062;-55
2022/08/12 03:22:52;;;;;;;9.05;1.83;;;;;;;;;;4941904;28;20499;-54
2022/08/12 03:25:26;;;;;;;3.53;1.60;;;;;;;;;;4954124;28;20043;-53
2022/08/12 03:27:57;;;;;;;4.07;1.50;;;;;;;;;;4940538;28;20134;-55
2022/08/12 03:30:28;;;;;;;3.35;1.83;;;;;;;;;;4937745;28;20061;-56
2022/08/12 03:32:55;;;;;;;5.07;1.90;;;;;;;;;;4940651;28;20055;-59
2022/08/12 03:35:26;;;;;;;7.20;1.70;;;;;;;;;;4938708;28;20050;-57
2022/08/12 03:38:10;;;;;;;6.40;1.95;;;;;;;;;;4917964;29;20060;-58
2022/08/12 04:00:24;;;;;;;5.28;1.70;;;;;;;;;;4939680;28;20054;-54
2022/08/12 04:02:57;;;;;;;4.88;1.98;;;;;;;;;;4937073;28;20043;-52
2022/08/12 04:05:23;;;;;;;3.03;1.70;;;;;;;;;;4918352;29;20047;-56
2022/08/12 04:07:50;;;;;;;3.10;1.80;;;;;;;;;;4920008;29;20080;-55
2022/08/12 04:10:16;;;;;;;2.22;1.52;;;;;;;;;;4933259;28;20086;-57
2022/08/12 04:15:28;;;;;;;4.05;1.95;;;;;;;;;;4936994;28;20173;-55
2022/08/12 04:17:55;;;;;;;4.43;1.70;;;;;;;;;;4940904;28;20212;-56
2022/08/12 04:20:21;;;;;;;10.52;1.85;;;;;;;;;;4942532;28;20050;-57
2022/08/12 04:22:47;;;;;;;11.77;2.03;;;;;;;;;;4943015;28;20051;-56
2022/08/12 04:25:13;;;;;;;7.40;2.15;;;;;;;;;;4928002;28;20055;-55
2022/08/12 04:27:42;;;;;;;2.58;1.83;;;;;;;;;;4931448;28;20078;-56
2022/08/12 04:30:09;;;;;;;7.47;1.70;;;;;;;;;;4940980;28;20559;-56
2022/08/12 04:32:35;;;;;;;6.60;1.90;;;;;;;;;;4941623;28;20042;-56
2022/08/12 04:35:02;;;;;;;4.70;1.70;;;;;;;;;;4942823;28;20070;-55
2022/08/12 04:37:28;;;;;;;4.35;1.98;;;;;;;;;;4939183;28;20043;-55
2022/08/12 04:39:54;;;;;;;2.92;1.90;;;;;;;;;;4940047;28;20100;-57
2022/08/12 04:42:20;;;;;;;3.72;1.80;;;;;;;;;;4941415;28;20051;-57
2022/08/12 04:44:47;;;;;;;4.93;1.58;;;;;;;;;;4942305;28;20051;-57
2022/08/12 04:47:15;;;;;;;5.78;1.60;;;;;;;;;;4940629;28;20040;-56
2022/08/12 04:49:44;;;;;;;3.67;1.90;;;;;;;;;;4942229;28;20054;-56
2022/08/12 04:52:10;;;;;;;1.85;1.48;;;;;;;;;;4941130;28;20055;-54
2022/08/12 04:54:36;;;;;;;6.68;2.00;;;;;;;;;;4943057;28;20063;-57
2022/08/12 04:57:02;;;;;;;2.55;1.48;;;;;;;;;;4942923;28;20059;-56
2022/08/12 04:59:29;;;;;;;4.40;2.00;;;;;;;;;;4938432;28;20061;-55
2022/08/12 05:01:56;;;;;;;2.75;1.55;;;;;;;;;;4941754;28;20035;-56
2022/08/12 05:04:24;;;;;;;2.55;1.92;;;;;;;;;;4955774;28;20059;-56
2022/08/12 05:06:50;;;;;;;6.22;1.67;;;;;;;;;;4939581;28;20051;-56
2022/08/12 05:09:15;;;;;;;3.25;1.90;;;;;;;;;;4941825;28;20063;-56
2022/08/12 05:11:41;;;;;;;8.10;1.73;;;;;;;;;;4941590;28;20035;-56
2022/08/12 05:14:07;;;;;;;3.00;1.67;;;;;;;;;;4943230;28;20039;-56
2022/08/12 05:16:34;;;;;;;2.78;2.22;;;;;;;;;;4937011;28;20585;-59
2022/08/12 05:19:00;;;;;;;6.45;1.90;;;;;;;;;;4941679;28;20242;-59
2022/08/12 05:21:25;;;;;;;4.03;2.00;;;;;;;;;;4940203;28;20130;-59
2022/08/12 05:23:50;;;;;;;6.90;2.17;;;;;;;;;;4943384;28;20051;-59
2022/08/12 05:26:16;;;;;;;3.53;1.80;;;;;;;;;;4935503;28;20085;-59
2022/08/12 05:28:41;;;;;;;5.68;1.98;;;;;;;;;;4940897;28;20047;-59
2022/08/12 05:31:07;;;;;;;3.88;1.70;;;;;;;;;;4940814;28;20127;-60
2022/08/12 05:33:38;;;;;;;4.55;1.58;;;;;;;;;;4930307;28;20063;-59
2022/08/12 05:36:06;;;;;;;3.97;2.22;;;;;;;;;;4929676;28;20445;-57
2022/08/12 05:41:20;;;;;;;6.00;1.67;;;;;;;;;;4939301;28;20038;-59
2022/08/12 05:43:51;;;;;;;1.85;1.58;;;;;;;;;;4942613;28;20055;-60
2022/08/12 05:46:18;;;;;;;3.55;2.28;;;;;;;;;;4937552;28;20066;-59
2022/08/12 05:48:43;;;;;;;4.82;2.00;;;;;;;;;;4938001;28;20063;-60
2022/08/12 05:51:12;;;;;;;5.22;1.60;;;;;;;;;;4955769;28;20066;-59
2022/08/12 05:53:38;;;;;;;7.65;1.98;;;;;;;;;;4937354;28;20161;-60
2022/08/12 05:56:04;;;;;;;1.83;1.48;;;;;;;;;;4940864;28;20035;-59
2022/08/12 05:58:30;;;;;;;4.18;1.67;;;;;;;;;;4937657;28;20055;-58
2022/08/12 06:00:56;;;;;;;5.10;1.67;;;;;;;;;;4939709;28;20047;-59
2022/08/12 06:03:22;;;;;;;3.70;1.80;;;;;;;;;;4938338;28;20051;-59
2022/08/12 06:05:48;;;;;;;4.43;1.90;;;;;;;;;;4939370;28;20142;-59
2022/08/12 06:08:15;;;;;;;5.30;1.63;;;;;;;;;;4940452;28;20043;-59
2022/08/12 06:10:40;;;;;;;2.88;1.70;;;;;;;;;;4940547;28;20365;-59
2022/08/12 06:13:06;;;;;;;4.13;1.63;;;;;;;;;;4940550;28;20392;-59
2022/08/12 06:15:36;;;;;;;4.78;1.70;;;;;;;;;;4937852;28;20059;-56
2022/08/12 06:18:09;;;;;;;3.90;1.40;;;;;;;;;;4943259;28;20055;-58
2022/08/12 06:20:36;;;;;;;2.10;1.50;;;;;;;;;;4941358;28;20082;-56
2022/08/12 06:23:01;;;;;;;4.32;1.73;;;;;;;;;;4938932;28;20118;-57
2022/08/12 06:25:28;;;;;;;7.57;1.55;;;;;;;;;;4924401;28;20051;-57
2022/08/12 06:27:55;;;;;;;1.60;1.40;;;;;;;;;;4934025;28;20061;-57
2022/08/12 06:30:21;;;;;;;6.10;1.70;;;;;;;;;;4939594;28;20082;-57
2022/08/12 06:32:48;;;;;;;2.30;1.40;;;;;;;;;;4940152;28;20081;-56
2022/08/12 06:35:16;;;;;;;9.68;1.55;;;;;;;;;;4954418;28;20529;-57
2022/08/12 06:37:47;;;;;;;4.10;1.50;;;;;;;;;;4942157;28;20658;-59
2022/08/12 06:40:13;;;;;;;4.93;1.60;;;;;;;;;;4938023;28;20765;-58
2022/08/12 06:42:50;;;;;;;5.43;1.50;;;;;;;;;;4937691;28;20691;-57
2022/08/12 06:45:19;;;;;;;4.00;1.38;;;;;;;;;;4939693;28;20035;-56
2022/08/12 06:47:47;;;;;;;4.93;1.40;;;;;;;;;;4939813;28;20396;-58
2022/08/12 06:50:17;;;;;;;2.95;1.45;;;;;;;;;;4940478;28;20035;-58
2022/08/12 06:52:43;;;;;;;1.95;1.38;;;;;;;;;;4940389;28;20176;-59
2022/08/12 06:55:19;;;;;;;2.40;1.40;;;;;;;;;;4939804;28;20142;-58
2022/08/12 06:58:00;;;;;;;4.30;1.40;;;;;;;;;;4935026;28;20442;-57
2022/08/12 07:00:29;;;;;;;3.55;1.40;;;;;;;;;;4938173;28;20051;-57
2022/08/12 07:02:56;;;;;;;2.42;1.20;;;;;;;;;;4938148;28;20091;-57
2022/08/12 07:05:25;;;;;;;3.05;1.52;;;;;;;;;;4940430;28;20621;-58
2022/08/12 07:07:54;;;;;;;11.70;1.73;;;;;;;;;;4940914;28;20145;-58
2022/08/12 07:10:23;;;;;;;7.10;1.60;;;;;;;;;;4935488;28;20043;-58
2022/08/12 07:12:56;;;;;;;10.52;1.42;;;;;;;;;;4939545;28;20045;-55
2022/08/12 07:15:23;;;;;;;10.38;1.50;;;;;;;;;;4933903;28;20039;-60
2022/08/12 07:17:59;;;;;;;3.22;1.48;;;;;;;;;;4928795;28;20082;-59
2022/08/12 07:20:30;;;;;;;8.90;1.45;;;;;;;;;;4942083;28;20612;-62
2022/08/12 07:22:56;;;;;;;5.88;1.40;;;;;;;;;;4925418;29;20024;-60
2022/08/12 07:25:30;;;;;;;9.52;1.40;;;;;;;;;;4940075;28;20047;-58
2022/08/12 07:28:02;;;;;;;8.77;1.65;;;;;;;;;;4941413;28;20043;-59
2022/08/12 07:30:30;;;;;;;8.55;1.50;;;;;;;;;;4938759;28;20228;-58
2022/08/12 07:32:56;;;;;;;2.40;1.40;;;;;;;;;;4942979;28;20053;-57
2022/08/12 07:35:22;;;;;;;4.10;1.30;;;;;;;;;;4941825;28;20101;-58
2022/08/12 07:37:49;;;;;;;3.40;1.40;;;;;;;;;;4932348;28;20098;-59
2022/08/12 07:40:17;;;;;;;7.63;2.00;;;;;;;;;;4939280;28;20039;-58
2022/08/12 07:42:43;;;;;;;6.88;1.60;;;;;;;;;;4938771;28;20122;-57
2022/08/12 07:45:11;;;;;;;1.90;1.45;;;;;;;;;;4938806;28;20043;-58
2022/08/12 07:47:39;;;;;;;3.45;1.27;;;;;;;;;;4940302;28;20061;-56
2022/08/12 07:50:08;;;;;;;5.72;1.45;;;;;;;;;;4945979;28;20040;-56
2022/08/12 07:52:35;;;;;;;5.82;2.05;;;;;;;;;;4936599;28;20047;-57
2022/08/12 07:55:01;;;;;;;9.93;1.58;;;;;;;;;;4943391;28;20414;-56
2022/08/12 07:57:26;;;;;;;5.07;1.60;;;;;;;;;;4935409;28;20078;-57
2022/08/12 07:59:52;;;;;;;3.40;1.40;;;;;;;;;;4928364;28;20043;-55
2022/08/12 08:02:17;;;;;;;1.75;1.25;;;;;;;;;;4944380;28;20034;-57
2022/08/12 08:04:55;;;;;;;3.78;1.42;;;;;;;;;;4942136;28;20538;-57
2022/08/12 08:07:21;;;;;;;7.47;1.60;;;;;;;;;;4945570;28;20079;-60
2022/08/12 08:09:47;;;;;;;8.55;1.55;;;;;;;;;;4947832;28;20138;-61
2022/08/12 08:14:57;;;;;;;4.47;1.40;;;;;;;;;;4930616;28;20078;-57
2022/08/12 08:17:24;;;;;;;3.15;1.50;;;;;;;;;;4946474;28;20102;-57
2022/08/12 08:19:54;;;;;;;3.38;1.30;;;;;;;;;;4926470;28;20040;-54
2022/08/12 08:22:22;;;;;;;4.00;1.60;;;;;;;;;;4941195;28;20490;-57
2022/08/12 08:24:56;;;;;;;3.17;1.30;;;;;;;;;;4933474;28;20036;-57
2022/08/12 08:27:22;;;;;;;3.45;1.35;;;;;;;;;;4929869;28;20063;-56
2022/08/12 08:29:48;;;;;;;3.50;1.67;;;;;;;;;;4944038;28;20376;-58
2022/08/12 08:32:13;;;;;;;4.15;1.55;;;;;;;;;;4943306;28;20058;-57
2022/08/12 08:34:39;;;;;;;8.02;1.55;;;;;;;;;;4925135;28;20083;-57
2022/08/12 08:37:05;;;;;;;6.18;1.50;;;;;;;;;;4935490;28;20665;-57
2022/08/12 08:39:31;;;;;;;3.00;1.40;;;;;;;;;;4942344;28;20054;-58
2022/08/12 08:44:41;;;;;;;5.35;1.92;;;;;;;;;;4928410;28;20062;-58
2022/08/12 08:47:08;;;;;;;4.75;1.35;;;;;;;;;;4930929;28;20039;-58
2022/08/12 08:49:35;;;;;;;1.20;1.10;;;;;;;;;;4927096;28;20047;-59
2022/08/12 08:52:01;;;;;;;3.17;1.40;;;;;;;;;;4940323;28;20061;-58
2022/08/12 08:54:32;;;;;;;4.55;1.30;;;;;;;;;;4941109;28;20141;-59
2022/08/12 08:57:03;;;;;;;2.88;1.55;;;;;;;;;;4943067;28;20439;-58
2022/08/12 08:59:28;;;;;;;5.88;1.60;;;;;;;;;;4946279;28;20513;-57
2022/08/12 09:01:53;;;;;;;3.30;1.20;;;;;;;;;;4945205;28;20043;-56
2022/08/12 09:04:19;;;;;;;6.28;1.42;;;;;;;;;;4956840;28;20102;-58
2022/08/12 09:06:48;;;;;;;6.13;1.42;;;;;;;;;;4946055;28;20135;-58
2022/08/12 09:09:13;;;;;;;8.68;1.60;;;;;;;;;;4946810;28;20055;-57
2022/08/12 09:14:23;;;;;;;6.63;1.42;;;;;;;;;;4944008;28;20721;-58
2022/08/12 09:16:49;;;;;;;2.60;1.20;;;;;;;;;;4943944;28;20044;-59
2022/08/12 09:19:16;;;;;;;4.28;1.17;;;;;;;;;;4941285;28;20442;-57
2022/08/12 09:21:42;;;;;;;8.45;1.58;;;;;;;;;;4928849;28;20166;-59
2022/08/12 09:24:07;;;;;;;1.98;1.50;;;;;;;;;;4926956;28;20047;-57
2022/08/12 09:26:34;;;;;;;3.70;1.45;;;;;;;;;;4937098;28;20110;-62
2022/08/12 09:29:00;;;;;;;3.53;1.25;;;;;;;;;;4921428;29;20042;-64
2022/08/12 09:31:26;;;;;;;2.67;1.23;;;;;;;;;;4940278;28;20047;-63
2022/08/12 09:33:54;;;;;;;9.52;1.67;;;;;;;;;;4944786;28;20071;-62
2022/08/12 09:36:21;;;;;;;6.38;1.60;;;;;;;;;;4944220;28;20425;-63
2022/08/12 09:38:47;;;;;;;3.92;1.42;;;;;;;;;;4946486;28;20078;-62
2022/08/12 09:41:15;;;;;;;3.50;1.23;;;;;;;;;;4943238;28;20077;-62
2022/08/12 09:46:28;;;;;;;6.28;1.33;;;;;;;;;;4940982;28;20054;-62
2022/08/12 09:48:54;;;;;;;3.03;1.35;;;;;;;;;;4945591;28;20578;-63
2022/08/12 09:51:19;;;;;;;7.18;1.50;;;;;;;;;;4958876;28;20047;-62
2022/08/12 09:53:45;;;;;;;1.88;1.35;;;;;;;;;;4943224;28;20055;-63
2022/08/12 09:56:12;;;;;;;2.88;1.17;;;;;;;;;;4941255;28;20039;-63
2022/08/12 09:58:40;;;;;;;3.67;1.25;;;;;;;;;;4941047;28;20074;-62
2022/08/12 10:01:06;;;;;;;3.20;1.40;;;;;;;;;;4945345;28;20054;-62
2022/08/12 10:03:32;;;;;;;3.08;1.70;;;;;;;;;;4943431;28;20051;-63
2022/08/12 10:05:59;;;;;;;2.28;1.38;;;;;;;;;;4945026;28;20058;-62
2022/08/12 10:08:29;;;;;;;2.15;1.38;;;;;;;;;;4943164;28;20627;-63
2022/08/12 10:13:43;;;;;;;3.88;1.30;;;;;;;;;;4936614;28;21337;-62
2022/08/12 10:16:17;;;;;;;2.28;1.27;;;;;;;;;;4940510;28;20055;-63
2022/08/12 10:18:48;;;;;;;2.08;1.40;;;;;;;;;;4941048;28;20055;-62
2022/08/12 10:21:15;;;;;;;3.85;1.63;;;;;;;;;;4941546;28;20083;-63
2022/08/12 10:23:43;;;;;;;1.45;1.30;;;;;;;;;;4941253;28;20035;-64
2022/08/12 10:31:38;;;;;;;5.28;1.60;;;;;;;;;;4938977;28;20127;-63
2022/08/12 10:34:05;;;;;;;3.70;1.58;;;;;;;;;;4940657;28;20532;-64
2022/08/12 10:36:38;;;;;;;2.05;1.33;;;;;;;;;;4936617;28;20105;-64
2022/08/12 10:39:15;;;;;;;11.68;1.98;;;;;;;;;;5062919;27;1326785;-64
2022/08/12 10:44:27;;;;;;;3.78;1.27;;;;;;;;;;5056920;28;20087;-64
2022/08/12 10:46:54;;;;;;;6.53;1.55;;;;;;;;;;5059302;28;20082;-62
2022/08/12 10:49:24;;;;;;;4.82;1.50;;;;;;;;;;5053870;28;20047;-62
2022/08/12 10:51:50;;;;;;;3.13;1.20;;;;;;;;;;5053810;28;20052;-63
2022/08/12 10:54:17;;;;;;;3.55;1.70;;;;;;;;;;5053355;28;20036;-63
2022/08/12 10:56:47;;;;;;;3.92;1.23;;;;;;;;;;5070428;28;20047;-63
2022/08/12 10:59:14;;;;;;;3.95;1.38;;;;;;;;;;5054299;28;20121;-63
2022/08/12 11:01:41;;;;;;;4.35;1.25;;;;;;;;;;5049141;28;20056;-63
2022/08/12 11:04:09;;;;;;;5.03;1.42;;;;;;;;;;5058112;28;20466;-63
2022/08/12 11:06:36;;;;;;;2.40;1.38;;;;;;;;;;5051197;28;20656;-64
2022/08/12 11:09:01;;;;;;;4.68;1.35;;;;;;;;;;5051088;28;20041;-64
2022/08/12 11:11:27;;;;;;;1.48;1.33;;;;;;;;;;5050977;28;20064;-63
2022/08/12 11:13:52;;;;;;;2.55;1.20;;;;;;;;;;5056097;28;20873;-62
2022/08/12 11:16:18;;;;;;;5.32;1.30;;;;;;;;;;5054035;28;20114;-63
2022/08/12 11:18:44;;;;;;;1.27;1.13;;;;;;;;;;5057066;28;20088;-62
2022/08/12 11:21:09;;;;;;;2.08;1.30;;;;;;;;;;5058174;28;20079;-63
2022/08/12 11:23:35;;;;;;;2.55;1.30;;;;;;;;;;5056321;28;20029;-63
2022/08/12 11:26:00;;;;;;;3.35;1.17;;;;;;;;;;5058879;28;20467;-63
2022/08/12 11:28:26;;;;;;;2.38;1.40;;;;;;;;;;5055439;28;20236;-63
2022/08/12 11:30:51;;;;;;;4.13;1.23;;;;;;;;;;5056487;28;20446;-63
2022/08/12 11:33:17;;;;;;;2.17;1.10;;;;;;;;;;5052677;28;20437;-63
2022/08/12 11:35:43;;;;;;;1.45;1.33;;;;;;;;;;5049177;28;20037;-64
2022/08/12 11:38:10;;;;;;;7.03;1.20;;;;;;;;;;5053059;28;20521;-63
2022/08/12 11:40:36;;;;;;;1.70;1.17;;;;;;;;;;5047480;28;20476;-62
2022/08/12 11:43:02;;;;;;;2.85;1.20;;;;;;;;;;5053382;28;20041;-63
2022/08/12 11:45:31;;;;;;;5.22;1.33;;;;;;;;;;5061929;28;20063;-62
2022/08/12 11:48:00;;;;;;;1.92;1.33;;;;;;;;;;5074324;27;20040;-61
2022/08/12 11:50:25;;;;;;;2.53;1.42;;;;;;;;;;5064201;28;20040;-63
2022/08/12 11:52:51;;;;;;;12.95;1.58;;;;;;;;;;5064555;28;20042;-62
2022/08/12 11:55:17;;;;;;;4.63;1.65;;;;;;;;;;5063729;28;20055;-62
2022/08/12 11:57:50;;;;;;;4.90;1.45;;;;;;;;;;5057630;28;20074;-61
2022/08/12 12:00:16;;;;;;;3.80;1.65;;;;;;;;;;5060648;28;20037;-61
2022/08/12 12:02:41;;;;;;;9.73;1.67;;;;;;;;;;5059408;28;20390;-61
2022/08/12 12:05:07;;;;;;;3.45;1.30;;;;;;;;;;5061785;28;20040;-61
2022/08/12 12:07:37;;;;;;;4.70;1.40;;;;;;;;;;5023360;28;20132;-61
2022/08/12 12:10:03;;;;;;;6.13;1.45;;;;;;;;;;5041666;28;20075;-62
2022/08/12 12:12:28;;;;;;;2.55;1.50;;;;;;;;;;5044275;28;20747;-61
2022/08/12 12:14:54;;;;;;;3.00;1.10;;;;;;;;;;5059602;28;20071;-63
2022/08/12 12:17:19;;;;;;;2.03;1.20;;;;;;;;;;5052298;28;20020;-62
2022/08/12 12:19:44;;;;;;;3.05;1.15;;;;;;;;;;5056547;28;20091;-62
2022/08/12 12:22:10;;;;;;;3.40;1.50;;;;;;;;;;5044016;28;20503;-61
2022/08/12 12:24:36;;;;;;;2.45;1.10;;;;;;;;;;5040953;28;20128;-60
2022/08/12 12:27:02;;;;;;;1.83;1.00;;;;;;;;;;5040436;28;20504;-62
2022/08/12 12:29:29;;;;;;;3.55;1.40;;;;;;;;;;5039982;28;20049;-63
2022/08/12 12:31:54;;;;;;;2.42;1.35;;;;;;;;;;5043223;28;20037;-62
2022/08/12 12:34:19;;;;;;;4.80;1.42;;;;;;;;;;5037554;28;20082;-62
2022/08/12 12:36:47;;;;;;;5.32;1.45;;;;;;;;;;5038024;28;20041;-63
2022/08/12 12:39:13;;;;;;;2.72;1.52;;;;;;;;;;5037853;28;20044;-63
2022/08/12 12:41:38;;;;;;;4.00;1.15;;;;;;;;;;5037221;28;20029;-63
2022/08/12 12:44:04;;;;;;;4.32;1.30;;;;;;;;;;5042444;28;20071;-63
2022/08/12 12:46:29;;;;;;;3.42;1.33;;;;;;;;;;5040412;28;20137;-63
2022/08/12 12:48:54;;;;;;;1.48;1.05;;;;;;;;;;5039219;28;20044;-63
2022/08/12 12:51:20;;;;;;;8.02;1.40;;;;;;;;;;5039019;28;20069;-63
2022/08/12 12:53:48;;;;;;;3.00;1.42;;;;;;;;;;5035637;28;20496;-62
2022/08/12 12:56:21;;;;;;;2.25;1.42;;;;;;;;;;5036410;28;20048;-63
2022/08/12 12:58:48;;;;;;;6.95;1.42;;;;;;;;;;5036245;28;20308;-62
2022/08/12 13:01:15;;;;;;;2.55;1.20;;;;;;;;;;5036262;28;20049;-63
2022/08/12 13:03:41;;;;;;;1.95;1.42;;;;;;;;;;5037273;28;20052;-64
2022/08/12 13:06:07;;;;;;;1.25;1.10;;;;;;;;;;5032972;28;20049;-63
2022/08/12 13:08:33;;;;;;;3.35;1.20;;;;;;;;;;5040810;28;20483;-63
2022/08/12 13:11:02;;;;;;;2.38;0.93;;;;;;;;;;5057641;28;20419;-64
2022/08/12 13:13:29;;;;;;;3.50;1.15;;;;;;;;;;5058049;28;20449;-64
2022/08/12 13:15:56;;;;;;;2.63;1.33;;;;;;;;;;5058778;28;20063;-63
2022/08/12 13:18:21;;;;;;;1.40;0.90;;;;;;;;;;5057171;28;20074;-63
2022/08/12 13:20:47;;;;;;;4.75;1.40;;;;;;;;;;5057862;28;20044;-63
2022/08/12 13:23:18;;;;;;;2.00;1.20;;;;;;;;;;5059712;28;20048;-64
2022/08/12 13:25:45;;;;;;;2.70;1.05;;;;;;;;;;5060466;28;20044;-63
2022/08/12 13:28:27;;;;;;;2.78;1.20;;;;;;;;;;5042338;28;20061;-62
2022/08/12 13:30:54;;;;;;;3.50;1.00;;;;;;;;;;5038901;28;20053;-63
2022/08/12 13:33:24;;;;;;;5.32;1.52;;;;;;;;;;5037004;28;20062;-65
2022/08/12 13:35:51;;;;;;;6.00;1.30;;;;;;;;;;5034883;28;20407;-63
2022/08/12 13:38:17;;;;;;;2.85;1.25;;;;;;;;;;5035505;28;20047;-64
2022/08/12 13:40:43;;;;;;;4.05;1.27;;;;;;;;;;5036483;28;20053;-65
2022/08/12 13:43:14;;;;;;;4.25;1.10;;;;;;;;;;5053919;28;20131;-61
2022/08/12 13:45:40;;;;;;;1.45;1.05;;;;;;;;;;5059816;28;20048;-62
2022/08/12 13:48:06;;;;;;;2.80;0.95;;;;;;;;;;5052444;28;20053;-61
2022/08/12 13:50:39;;;;;;;3.47;1.60;;;;;;;;;;5034502;28;20032;-62
2022/08/12 13:53:10;;;;;;;1.75;1.02;;;;;;;;;;5061894;28;20058;-65
2022/08/12 13:55:37;;;;;;;5.70;1.35;;;;;;;;;;5058390;28;20151;-67
2022/08/12 13:58:09;;;;;;;2.33;1.38;;;;;;;;;;5060842;28;20040;-64
2022/08/12 14:00:35;;;;;;;;;;;;;;;;;;5057266;28;20072;-63
2022/08/12 14:03:01;;;;;;;8.13;1.20;;;;;;;;;;5059192;28;19960;-63
2022/08/12 14:05:27;;;;;;;2.63;0.95;;;;;;;;;;5051987;28;20033;-65
2022/08/12 14:07:54;;;;;;;4.95;1.20;;;;;;;;;;5060201;28;20180;-63
2022/08/12 14:10:37;;;;;;;4.80;1.40;;;;;;;;;;5047211;28;20110;-63
2022/08/12 14:13:15;;;;;;;4.32;1.10;;;;;;;;;;5041393;28;21770;-65
2022/08/12 14:15:46;;;;;;;8.98;1.20;;;;;;;;;;5044169;28;20132;-65
2022/08/12 14:18:13;;;;;;;5.63;1.20;;;;;;;;;;5043468;28;20053;-65
2022/08/12 14:20:41;;;;;;;4.78;1.10;;;;;;;;;;5040810;28;20029;-64
2022/08/12 14:23:07;;;;;;;1.95;1.08;;;;;;;;;;5045662;28;20099;-64
2022/08/12 14:25:33;;;;;;;3.47;1.00;;;;;;;;;;5041280;28;20122;-63
2022/08/12 14:28:14;;;;;;;3.78;1.00;;;;;;;;;;5037066;28;20057;-64
2022/08/12 14:30:53;;;;;;;11.85;1.35;;;;;;;;;;5037574;28;20431;-63
2022/08/12 14:33:23;;;;;;;1.90;1.35;;;;;;;;;;5039395;28;20113;-63
2022/08/12 14:35:50;;;;;;;5.90;1.08;;;;;;;;;;5047678;28;20060;-64
2022/08/12 14:38:27;;;;;;;6.55;1.10;;;;;;;;;;5038114;28;20029;-64
2022/08/12 14:40:58;;;;;;;2.25;1.20;;;;;;;;;;5037766;28;20136;-64
2022/08/12 14:43:32;;;;;;;3.75;1.30;;;;;;;;;;5054003;28;20052;-62
2022/08/12 14:46:02;;;;;;;5.05;1.40;;;;;;;;;;5041085;28;20048;-63
2022/08/12 14:48:30;;;;;;;6.35;1.10;;;;;;;;;;5038194;28;20059;-62
2022/08/12 14:50:56;;;;;;;2.40;1.10;;;;;;;;;;5037563;28;20053;-62
2022/08/12 14:53:22;;;;;;;1.85;1.05;;;;;;;;;;5038478;28;20037;-61
2022/08/12 14:55:48;;;;;;;2.70;1.20;;;;;;;;;;5032389;28;20049;-62
2022/08/12 14:58:18;;;;;;;1.20;1.10;;;;;;;;;;5037841;28;20056;-62
2022/08/12 15:03:30;;;;;;;4.35;1.15;;;;;;;;;;5034648;28;20549;-62
2022/08/12 15:05:59;;;;;;;2.63;1.02;;;;;;;;;;5050885;28;20388;-62
2022/08/12 15:08:34;;;;;;;4.10;1.10;;;;;;;;;;5036822;28;20037;-64
2022/08/12 15:11:03;;;;;;;5.22;1.10;;;;;;;;;;5041206;28;20048;-62
2022/08/12 15:13:32;;;;;;;4.93;1.52;;;;;;;;;;5037331;28;20435;-62
2022/08/12 15:16:00;;;;;;;2.65;1.08;;;;;;;;;;5038640;28;20037;-62
2022/08/12 15:18:26;;;;;;;2.83;1.27;;;;;;;;;;5038892;28;20076;-63
2022/08/12 15:20:53;;;;;;;2.35;1.27;;;;;;;;;;5035028;28;20413;-62
2022/08/12 15:23:21;;;;;;;3.35;1.17;;;;;;;;;;5041623;28;20104;-62
2022/08/12 15:25:52;;;;;;;3.47;1.23;;;;;;;;;;5043381;28;20049;-63
2022/08/12 15:28:22;;;;;;;3.63;1.13;;;;;;;;;;5043728;28;20057;-63
2022/08/12 15:30:51;;;;;;;2.15;1.23;;;;;;;;;;5044537;28;20079;-62
2022/08/12 15:33:17;;;;;;;2.17;1.10;;;;;;;;;;5045704;28;20052;-62
2022/08/12 15:35:43;;;;;;;1.60;1.10;;;;;;;;;;5042687;28;20064;-63
2022/08/12 15:38:10;;;;;;;1.83;1.05;;;;;;;;;;5040945;28;20339;-63
2022/08/12 15:40:41;;;;;;;3.20;1.27;;;;;;;;;;5036954;28;20057;-63
2022/08/12 15:43:08;;;;;;;6.18;1.30;;;;;;;;;;5038861;28;20045;-62
2022/08/12 15:45:36;;;;;;;3.47;1.40;;;;;;;;;;5041008;28;20064;-62
2022/08/12 15:48:04;;;;;;;1.45;1.20;;;;;;;;;;5043852;28;20048;-63
2022/08/12 15:50:31;;;;;;;2.75;1.15;;;;;;;;;;5038468;28;20659;-62
2022/08/12 15:52:58;;;;;;;1.70;1.20;;;;;;;;;;5038590;28;20131;-62
2022/08/12 15:55:24;;;;;;;3.58;1.20;;;;;;;;;;5037633;28;20140;-62
2022/08/12 15:57:53;;;;;;;4.05;1.10;;;;;;;;;;5041511;28;20041;-64
2022/08/12 16:00:20;;;;;;;1.75;1.13;;;;;;;;;;5049282;28;20044;-63
2022/08/12 16:02:50;;;;;;;2.22;1.13;;;;;;;;;;5061084;28;20064;-64
2022/08/12 16:05:17;;;;;;;2.85;1.10;;;;;;;;;;5063579;28;20388;-63
2022/08/12 16:07:46;;;;;;;5.00;1.17;;;;;;;;;;5060280;28;20093;-63
2022/08/12 16:10:12;;;;;;;3.88;1.20;;;;;;;;;;5061412;28;20048;-67
2022/08/12 16:12:43;;;;;;;4.68;1.27;;;;;;;;;;5062757;28;20055;-64
2022/08/12 16:15:10;;;;;;;0.80;0.80;;;;;;;;;;5076806;28;20117;-65
2022/08/12 16:17:38;;;;;;;2.60;1.08;;;;;;;;;;5061067;28;20039;-64
2022/08/12 16:20:13;;;;;;;3.03;1.10;;;;;;;;;;5061202;28;20036;-64
2022/08/12 16:22:39;;;;;;;1.83;1.10;;;;;;;;;;5064888;28;20052;-65
2022/08/12 16:25:08;;;;;;;2.70;1.10;;;;;;;;;;5065019;28;20578;-64
2022/08/12 16:27:34;;;;;;;2.83;0.93;;;;;;;;;;5060409;28;20045;-64
2022/08/12 16:30:01;;;;;;;2.05;1.00;;;;;;;;;;5062898;28;20070;-63
2022/08/12 16:32:26;;;;;;;4.45;1.00;;;;;;;;;;5052679;28;20036;-65
2022/08/12 16:34:55;;;;;;;2.97;1.15;;;;;;;;;;5059166;28;20060;-67
2022/08/12 16:37:21;;;;;;;4.72;1.10;;;;;;;;;;5058838;28;20044;-64